createdAt,value
2018-04-28T00:00:49.185Z,0
2018-04-28T00:01:49.228Z,0
2018-04-28T00:02:49.225Z,0
2018-04-28T00:03:49.268Z,0
2018-04-28T00:04:49.168Z,0
2018-04-28T00:05:49.245Z,0
2018-04-28T00:06:49.197Z,0
2018-04-28T00:07:49.163Z,0
2018-04-28T00:08:49.234Z,0
2018-04-28T00:09:49.272Z,0
2018-04-28T00:10:49.152Z,0
2018-04-28T00:11:49.275Z,0
2018-04-28T00:12:49.262Z,0
2018-04-28T00:13:49.276Z,0
2018-04-28T00:14:49.295Z,0
2018-04-28T00:15:49.271Z,0
2018-04-28T00:16:49.204Z,0
2018-04-28T00:17:49.272Z,0
2018-04-28T00:18:49.207Z,0
2018-04-28T00:19:49.339Z,0
2018-04-28T00:20:49.218Z,0
2018-04-28T00:21:49.247Z,0
2018-04-28T00:22:49.282Z,0
2018-04-28T00:23:49.243Z,0
2018-04-28T00:24:49.262Z,0
2018-04-28T00:25:49.252Z,0
2018-04-28T00:26:49.147Z,0
2018-04-28T00:27:49.293Z,0
2018-04-28T00:28:49.163Z,0
2018-04-28T00:29:49.181Z,0
2018-04-28T00:30:49.247Z,0
2018-04-28T00:31:49.243Z,0
2018-04-28T00:32:49.245Z,0
2018-04-28T00:33:49.276Z,0
2018-04-28T00:34:49.276Z,0
2018-04-28T00:35:49.155Z,0
2018-04-28T00:36:49.271Z,0
2018-04-28T00:37:49.255Z,0
2018-04-28T00:38:49.221Z,0
2018-04-28T00:39:49.232Z,0
2018-04-28T00:40:49.283Z,0
2018-04-28T00:41:49.260Z,0
2018-04-28T00:42:49.175Z,0
2018-04-28T00:43:49.247Z,0
2018-04-28T00:44:49.215Z,0
2018-04-28T00:45:49.174Z,0
2018-04-28T00:46:49.142Z,0
2018-04-28T00:47:49.242Z,0
2018-04-28T00:48:49.122Z,0
2018-04-28T00:49:49.185Z,0
2018-04-28T00:50:49.216Z,0
2018-04-28T00:51:49.247Z,0
2018-04-28T00:52:49.182Z,0
2018-04-28T00:53:49.179Z,0
2018-04-28T00:54:49.281Z,0
2018-04-28T00:55:49.287Z,0
2018-04-28T00:56:49.184Z,0
2018-04-28T00:57:49.178Z,0
2018-04-28T00:58:49.232Z,0
2018-04-28T00:59:49.188Z,0
2018-04-28T01:00:49.298Z,0
2018-04-28T01:01:49.303Z,0
2018-04-28T01:02:49.253Z,0
2018-04-28T01:03:49.260Z,0
2018-04-28T01:04:49.173Z,0
2018-04-28T01:05:49.175Z,0
2018-04-28T01:06:49.194Z,0
2018-04-28T01:07:49.210Z,0
2018-04-28T01:08:49.263Z,0
2018-04-28T01:09:49.260Z,0
2018-04-28T01:10:49.268Z,0
2018-04-28T01:11:49.157Z,0
2018-04-28T01:12:49.202Z,0
2018-04-28T01:13:49.201Z,0
2018-04-28T01:14:49.204Z,0
2018-04-28T01:15:49.204Z,0
2018-04-28T01:16:49.237Z,0
2018-04-28T01:17:49.167Z,0
2018-04-28T01:18:49.211Z,0
2018-04-28T01:19:49.279Z,0
2018-04-28T01:20:49.278Z,0
2018-04-28T01:21:49.279Z,0
2018-04-28T01:22:49.235Z,0
2018-04-28T01:23:49.280Z,0
2018-04-28T01:24:49.282Z,0
2018-04-28T01:25:49.213Z,0
2018-04-28T01:26:49.284Z,0
2018-04-28T01:27:49.214Z,0
2018-04-28T01:28:49.281Z,0
2018-04-28T01:29:49.213Z,0
2018-04-28T01:30:49.214Z,0
2018-04-28T01:31:49.286Z,0
2018-04-28T01:32:49.285Z,0
2018-04-28T01:33:49.289Z,0
2018-04-28T01:34:49.304Z,0
2018-04-28T01:35:49.316Z,0
2018-04-28T01:36:49.290Z,0
2018-04-28T01:37:49.330Z,0
2018-04-28T01:38:49.286Z,0
2018-04-28T01:39:49.232Z,0
2018-04-28T01:40:49.333Z,0
2018-04-28T01:41:49.253Z,0
2018-04-28T01:42:49.185Z,0
2018-04-28T01:43:49.281Z,0
2018-04-28T01:44:49.248Z,0
2018-04-28T01:45:49.234Z,0
2018-04-28T01:46:49.250Z,0
2018-04-28T01:47:49.183Z,0
2018-04-28T01:48:49.231Z,0
2018-04-28T01:49:49.223Z,0
2018-04-28T01:50:49.288Z,0
2018-04-28T01:51:49.275Z,0
2018-04-28T01:52:49.233Z,0
2018-04-28T01:53:49.229Z,0
2018-04-28T01:54:49.232Z,0
2018-04-28T01:55:49.246Z,0
2018-04-28T01:56:49.317Z,0
2018-04-28T01:57:49.233Z,0
2018-04-28T01:58:49.303Z,0
2018-04-28T01:59:49.305Z,0
2018-04-28T02:00:49.306Z,0
2018-04-28T02:01:49.241Z,0
2018-04-28T02:02:49.240Z,0
2018-04-28T02:03:49.288Z,0
2018-04-28T02:04:49.297Z,0
2018-04-28T02:05:49.184Z,0
2018-04-28T02:06:49.237Z,0
2018-04-28T02:07:49.179Z,0
2018-04-28T02:08:49.209Z,0
2018-04-28T02:09:49.235Z,0
2018-04-28T02:10:49.289Z,0
2018-04-28T02:11:49.209Z,0
2018-04-28T02:12:49.187Z,0
2018-04-28T02:13:49.230Z,0
2018-04-28T02:14:49.306Z,0
2018-04-28T02:15:49.232Z,0
2018-04-28T02:16:49.231Z,0
2018-04-28T02:17:49.306Z,0
2018-04-28T02:18:49.333Z,0
2018-04-28T02:19:49.209Z,0
2018-04-28T02:20:49.308Z,0
2018-04-28T02:21:49.311Z,0
2018-04-28T02:22:49.218Z,0
2018-04-28T02:23:49.222Z,0
2018-04-28T02:24:49.270Z,0
2018-04-28T02:25:49.311Z,0
2018-04-28T02:26:49.240Z,0
2018-04-28T02:27:49.314Z,0
2018-04-28T02:28:49.257Z,0
2018-04-28T02:29:49.261Z,0
2018-04-28T02:30:49.243Z,0
2018-04-28T02:31:49.315Z,0
2018-04-28T02:32:49.337Z,0
2018-04-28T02:33:49.358Z,0
2018-04-28T02:34:49.250Z,0
2018-04-28T02:35:49.291Z,0
2018-04-28T02:36:49.232Z,0
2018-04-28T02:37:49.358Z,0
2018-04-28T02:38:49.306Z,0
2018-04-28T02:39:49.325Z,0
2018-04-28T02:40:49.303Z,0
2018-04-28T02:41:49.328Z,0
2018-04-28T02:42:49.332Z,0
2018-04-28T02:43:49.267Z,0
2018-04-28T02:44:49.337Z,0
2018-04-28T02:45:49.303Z,0
2018-04-28T02:46:49.331Z,0
2018-04-28T02:47:49.265Z,0
2018-04-28T02:48:49.328Z,0
2018-04-28T02:49:49.267Z,0
2018-04-28T02:50:49.236Z,0
2018-04-28T02:51:49.269Z,0
2018-04-28T02:52:49.333Z,0
2018-04-28T02:53:49.304Z,0
2018-04-28T02:54:49.332Z,0
2018-04-28T02:55:49.331Z,0
2018-04-28T02:56:49.296Z,0
2018-04-28T02:57:49.245Z,0
2018-04-28T02:58:49.258Z,0
2018-04-28T02:59:49.242Z,0
2018-04-28T03:00:49.334Z,0
2018-04-28T03:01:49.337Z,0
2018-04-28T03:02:49.311Z,0
2018-04-28T03:03:49.347Z,0
2018-04-28T03:04:49.363Z,0
2018-04-28T03:05:49.342Z,0
2018-04-28T03:06:49.343Z,0
2018-04-28T03:07:49.356Z,0
2018-04-28T03:08:49.418Z,0
2018-04-28T03:09:49.315Z,0
2018-04-28T03:10:49.381Z,0
2018-04-28T03:11:49.310Z,0
2018-04-28T03:12:49.269Z,0
2018-04-28T03:13:49.352Z,0
2018-04-28T03:14:49.345Z,0
2018-04-28T03:15:49.255Z,0
2018-04-28T03:16:49.349Z,0
2018-04-28T03:17:49.225Z,4
2018-04-28T03:18:49.279Z,4
2018-04-28T03:19:49.344Z,4
2018-04-28T03:20:49.315Z,0
2018-04-28T03:21:49.345Z,4
2018-04-28T03:22:49.348Z,4
2018-04-28T03:23:49.260Z,8
2018-04-28T03:24:49.315Z,4
2018-04-28T03:25:49.275Z,8
2018-04-28T03:26:49.261Z,8
2018-04-28T03:27:49.351Z,12
2018-04-28T03:28:49.298Z,12
2018-04-28T03:29:49.263Z,16
2018-04-28T03:30:49.353Z,16
2018-04-28T03:31:49.359Z,20
2018-04-28T03:32:49.248Z,20
2018-04-28T03:33:49.284Z,28
2018-04-28T03:34:49.352Z,32
2018-04-28T03:35:49.325Z,36
2018-04-28T03:36:49.355Z,40
2018-04-28T03:37:49.352Z,52
2018-04-28T03:38:49.359Z,56
2018-04-28T03:39:49.358Z,68
2018-04-28T03:40:49.305Z,80
2018-04-28T03:41:49.359Z,92
2018-04-28T03:42:49.333Z,104
2018-04-28T03:43:49.347Z,120
2018-04-28T03:44:49.364Z,140
2018-04-28T03:45:49.390Z,156
2018-04-28T03:46:49.339Z,180
2018-04-28T03:47:49.345Z,204
2018-04-28T03:48:49.330Z,228
2018-04-28T03:49:49.389Z,260
2018-04-28T03:50:49.347Z,288
2018-04-28T03:51:49.370Z,324
2018-04-28T03:52:49.304Z,360
2018-04-28T03:53:49.393Z,404
2018-04-28T03:54:49.308Z,448
2018-04-28T03:55:49.314Z,500
2018-04-28T03:56:49.374Z,548
2018-04-28T03:57:49.380Z,604
2018-04-28T03:58:49.325Z,656
2018-04-28T03:59:49.311Z,712
2018-04-28T04:00:49.386Z,776
2018-04-28T04:01:49.312Z,840
2018-04-28T04:02:49.357Z,908
2018-04-28T04:03:49.310Z,988
2018-04-28T04:04:49.244Z,1068
2018-04-28T04:05:49.309Z,1152
2018-04-28T04:06:49.251Z,1236
2018-04-28T04:07:49.359Z,1320
2018-04-28T04:08:49.371Z,1412
2018-04-28T04:09:49.245Z,1500
2018-04-28T04:10:49.248Z,1600
2018-04-28T04:11:49.323Z,1704
2018-04-28T04:12:49.316Z,1828
2018-04-28T04:13:49.407Z,1964
2018-04-28T04:14:49.316Z,2104
2018-04-28T04:15:49.389Z,2244
2018-04-28T04:16:49.316Z,2392
2018-04-28T04:17:49.389Z,2532
2018-04-28T04:18:49.322Z,2692
2018-04-28T04:19:49.352Z,2864
2018-04-28T04:20:49.398Z,3052
2018-04-28T04:21:49.319Z,3228
2018-04-28T04:22:49.371Z,3400
2018-04-28T04:23:49.459Z,3600
2018-04-28T04:24:49.309Z,3784
2018-04-28T04:25:49.371Z,3948
2018-04-28T04:26:49.428Z,4160
2018-04-28T04:27:49.487Z,4328
2018-04-28T04:28:49.354Z,4520
2018-04-28T04:29:49.419Z,4780
2018-04-28T04:30:49.371Z,5032
2018-04-28T04:31:49.341Z,5288
2018-04-28T04:32:49.359Z,5552
2018-04-28T04:33:49.300Z,5780
2018-04-28T04:34:49.381Z,6016
2018-04-28T04:35:49.355Z,6236
2018-04-28T04:36:49.314Z,6384
2018-04-28T04:37:49.435Z,6612
2018-04-28T04:38:49.336Z,6848
2018-04-28T04:39:49.397Z,7076
2018-04-28T04:40:49.331Z,7312
2018-04-28T04:41:49.272Z,7580
2018-04-28T04:42:49.303Z,7904
2018-04-28T04:43:49.403Z,8044
2018-04-28T04:44:49.334Z,8212
2018-04-28T04:45:49.403Z,8628
2018-04-28T04:46:49.338Z,9100
2018-04-28T04:47:49.443Z,9476
2018-04-28T04:48:49.410Z,9640
2018-04-28T04:49:49.408Z,9628
2018-04-28T04:50:49.337Z,9416
2018-04-28T04:51:49.404Z,9104
2018-04-28T04:52:49.344Z,9000
2018-04-28T04:53:49.426Z,9032
2018-04-28T04:54:49.415Z,9052
2018-04-28T04:55:49.333Z,8928
2018-04-28T04:56:49.430Z,8812
2018-04-28T04:57:49.410Z,8784
2018-04-28T04:58:49.334Z,8928
2018-04-28T04:59:49.368Z,9040
2018-04-28T05:00:49.535Z,9264
2018-04-28T05:01:49.338Z,9520
2018-04-28T05:02:49.447Z,9840
2018-04-28T05:03:49.418Z,10160
2018-04-28T05:04:49.345Z,10460
2018-04-28T05:05:49.416Z,10796
2018-04-28T05:06:49.355Z,11124
2018-04-28T05:07:49.349Z,11480
2018-04-28T05:08:49.352Z,11788
2018-04-28T05:09:49.419Z,12108
2018-04-28T05:10:49.347Z,12436
2018-04-28T05:11:49.420Z,12792
2018-04-28T05:12:49.423Z,13080
2018-04-28T05:13:49.363Z,13364
2018-04-28T05:14:49.392Z,13636
2018-04-28T05:15:49.386Z,13916
2018-04-28T05:16:49.388Z,14176
2018-04-28T05:17:49.443Z,14576
2018-04-28T05:18:49.390Z,15164
2018-04-28T05:19:49.394Z,15616
2018-04-28T05:20:49.394Z,15924
2018-04-28T05:21:49.344Z,16180
2018-04-28T05:22:49.453Z,16316
2018-04-28T05:23:49.377Z,16328
2018-04-28T05:24:49.277Z,16356
2018-04-28T05:25:49.278Z,16444
2018-04-28T05:26:49.405Z,16544
2018-04-28T05:27:49.285Z,16572
2018-04-28T05:28:49.383Z,16548
2018-04-28T05:29:49.256Z,16608
2018-04-28T05:30:49.286Z,16696
2018-04-28T05:31:49.287Z,16792
2018-04-28T05:32:49.292Z,16912
2018-04-28T05:33:49.462Z,17012
2018-04-28T05:34:49.435Z,17044
2018-04-28T05:35:49.458Z,17148
2018-04-28T05:36:49.435Z,17320
2018-04-28T05:37:49.406Z,17432
2018-04-28T05:38:49.474Z,17556
2018-04-28T05:39:49.437Z,17680
2018-04-28T05:40:49.407Z,17892
2018-04-28T05:41:49.411Z,18092
2018-04-28T05:42:49.347Z,18496
2018-04-28T05:43:49.443Z,19264
2018-04-28T05:44:49.334Z,20328
2018-04-28T05:45:49.378Z,20872
2018-04-28T05:46:49.444Z,21888
2018-04-28T05:47:49.445Z,22976
2018-04-28T05:48:49.464Z,24160
2018-04-28T05:49:49.377Z,23552
2018-04-28T05:50:49.445Z,24288
2018-04-28T05:51:49.381Z,24800
2018-04-28T05:52:49.449Z,26080
2018-04-28T05:53:49.352Z,26464
2018-04-28T05:54:49.427Z,26336
2018-04-28T05:55:49.470Z,26528
2018-04-28T05:56:49.426Z,26912
2018-04-28T05:57:49.527Z,27648
2018-04-28T05:58:49.443Z,27808
2018-04-28T05:59:49.446Z,26592
2018-04-28T06:00:49.484Z,26656
2018-04-28T06:01:49.424Z,26880
2018-04-28T06:02:49.470Z,26656
2018-04-28T06:03:49.354Z,26400
2018-04-28T06:04:49.346Z,24896
2018-04-28T06:05:49.315Z,24896
2018-04-28T06:06:49.352Z,24096
2018-04-28T06:07:49.410Z,24064
2018-04-28T06:08:49.305Z,23904
2018-04-28T06:09:49.408Z,23392
2018-04-28T06:10:49.316Z,23360
2018-04-28T06:11:49.364Z,23872
2018-04-28T06:12:49.354Z,24160
2018-04-28T06:13:49.365Z,24768
2018-04-28T06:14:49.490Z,26272
2018-04-28T06:15:49.497Z,27680
2018-04-28T06:16:49.463Z,30528
2018-04-28T06:17:49.484Z,30368
2018-04-28T06:18:49.496Z,33728
2018-04-28T06:19:49.387Z,44960
2018-04-28T06:20:49.425Z,50592
2018-04-28T06:21:49.499Z,54080
2018-04-28T06:22:49.363Z,60832
2018-04-28T06:23:49.468Z,79776
2018-04-28T06:24:49.467Z,86912
2018-04-28T06:25:49.489Z,97536
2018-04-28T06:26:49.484Z,97312
2018-04-28T06:27:49.422Z,87808
2018-04-28T06:28:49.469Z,71360
2018-04-28T06:29:49.469Z,75136
2018-04-28T06:30:49.410Z,54432
2018-04-28T06:31:49.466Z,60832
2018-04-28T06:32:49.505Z,71296
2018-04-28T06:33:49.437Z,59200
2018-04-28T06:34:49.373Z,75200
2018-04-28T06:35:49.544Z,80096
2018-04-28T06:36:49.473Z,85792
2018-04-28T06:37:49.447Z,64576
2018-04-28T06:38:49.445Z,63648
2018-04-28T06:39:49.514Z,65472
2018-04-28T06:40:49.478Z,72288
2018-04-28T06:41:49.433Z,87008
2018-04-28T06:42:49.499Z,73600
2018-04-28T06:43:49.466Z,64416
2018-04-28T06:44:49.385Z,63040
2018-04-28T06:45:49.390Z,61536
2018-04-28T06:46:49.468Z,62272
2018-04-28T06:47:49.382Z,73952
2018-04-28T06:48:49.370Z,75456
2018-04-28T06:49:49.468Z,64032
2018-04-28T06:50:49.369Z,65120
2018-04-28T06:51:49.349Z,61792
2018-04-28T06:52:49.478Z,66016
2018-04-28T06:53:49.479Z,51968
2018-04-28T06:54:49.413Z,52832
2018-04-28T06:55:49.484Z,42912
2018-04-28T06:56:49.396Z,38624
2018-04-28T06:57:49.538Z,38336
2018-04-28T06:58:49.370Z,40224
2018-04-28T06:59:49.407Z,70368
2018-04-28T07:00:49.480Z,41376
2018-04-28T07:01:49.452Z,51808
2018-04-28T07:02:49.488Z,44768
2018-04-28T07:03:49.427Z,50272
2018-04-28T07:04:49.427Z,57088
2018-04-28T07:05:49.497Z,45600
2018-04-28T07:06:49.427Z,44800
2018-04-28T07:07:49.497Z,56192
2018-04-28T07:08:49.428Z,54656
2018-04-28T07:09:49.498Z,70464
2018-04-28T07:10:49.473Z,58144
2018-04-28T07:11:49.497Z,70560
2018-04-28T07:12:49.432Z,61536
2018-04-28T07:13:49.495Z,66848
2018-04-28T07:14:49.433Z,48768
2018-04-28T07:15:49.497Z,48224
2018-04-28T07:16:49.432Z,50080
2018-04-28T07:17:49.500Z,49216
2018-04-28T07:18:49.431Z,64928
2018-04-28T07:19:49.531Z,52992
2018-04-28T07:20:49.434Z,71520
2018-04-28T07:21:49.504Z,67904
2018-04-28T07:22:49.439Z,72832
2018-04-28T07:23:49.534Z,89536
2018-04-28T07:24:49.523Z,89152
2018-04-28T07:25:49.540Z,75200
2018-04-28T07:26:49.475Z,76928
2018-04-28T07:27:49.542Z,63776
2018-04-28T07:28:49.465Z,88096
2018-04-28T07:29:49.467Z,62048
2018-04-28T07:30:49.478Z,68608
2018-04-28T07:31:49.483Z,66752
2018-04-28T07:32:49.481Z,68544
2018-04-28T07:33:49.442Z,67872
2018-04-28T07:34:49.413Z,63264
2018-04-28T07:35:49.444Z,56864
2018-04-28T07:36:49.511Z,46016
2018-04-28T07:37:49.449Z,45472
2018-04-28T07:40:53.916Z,44288
2018-04-28T07:41:49.472Z,44352
2018-04-28T07:42:49.551Z,44320
2018-04-28T07:43:49.518Z,46208
2018-04-28T07:44:49.452Z,48448
2018-04-28T07:45:49.522Z,53184
2018-04-28T07:46:49.769Z,53504
2018-04-28T07:47:49.518Z,81632
2018-04-28T07:48:49.452Z,54240
2018-04-28T07:49:49.519Z,88256
2018-04-28T07:50:49.455Z,58144
2018-04-28T07:51:49.524Z,51424
2018-04-28T07:52:49.459Z,50112
2018-04-28T07:53:49.445Z,51264
2018-04-28T07:54:49.488Z,54976
2018-04-28T07:55:49.508Z,64704
2018-04-28T07:56:49.489Z,54368
2018-04-28T07:57:49.548Z,52288
2018-04-28T07:58:49.525Z,53600
2018-04-28T07:59:49.553Z,57952
2018-04-28T08:00:49.526Z,53824
2018-04-28T08:01:49.491Z,62080
2018-04-28T08:02:49.552Z,135328
2018-04-28T08:03:49.566Z,98624
2018-04-28T08:04:49.469Z,120736
2018-04-28T08:05:49.572Z,59712
2018-04-28T08:06:49.574Z,58400
2018-04-28T08:07:49.454Z,63360
2018-04-28T08:08:49.527Z,82144
2018-04-28T08:09:49.499Z,54400
2018-04-28T08:10:49.532Z,58752
2018-04-28T08:11:49.567Z,119232
2018-04-28T08:12:49.510Z,110848
2018-04-28T08:13:49.572Z,109376
2018-04-28T08:14:49.497Z,63872
2018-04-28T08:15:49.509Z,77696
2018-04-28T08:16:49.507Z,73248
2018-04-28T08:17:49.563Z,114976
2018-04-28T08:18:49.506Z,120960
2018-04-28T08:19:49.501Z,95296
2018-04-28T08:20:49.560Z,112576
2018-04-28T08:21:49.576Z,48032
2018-04-28T08:22:49.536Z,50368
2018-04-28T08:23:49.559Z,105632
2018-04-28T08:24:49.546Z,123360
2018-04-28T08:25:49.477Z,118240
2018-04-28T08:26:49.546Z,123072
2018-04-28T08:27:49.546Z,88800
2018-04-28T08:28:49.482Z,90848
2018-04-28T08:29:49.546Z,132160
2018-04-28T08:30:49.546Z,127968
2018-04-28T08:31:49.553Z,125888
2018-04-28T08:32:49.483Z,122560
2018-04-28T08:33:49.585Z,111968
2018-04-28T08:34:49.580Z,112832
2018-04-28T08:35:49.588Z,101632
2018-04-28T08:36:49.626Z,101376
2018-04-28T08:37:49.519Z,115552
2018-04-28T08:38:49.473Z,116896
2018-04-28T08:39:49.485Z,130400
2018-04-28T08:40:49.461Z,131040
2018-04-28T08:41:49.465Z,118112
2018-04-28T08:42:49.568Z,29728
2018-04-28T08:43:49.554Z,81728
2018-04-28T08:44:49.561Z,133312
2018-04-28T08:45:49.497Z,133728
2018-04-28T08:46:49.537Z,135968
2018-04-28T08:47:49.555Z,133248
2018-04-28T08:48:49.458Z,132480
2018-04-28T08:49:49.580Z,137440
2018-04-28T08:50:49.517Z,144160
2018-04-28T08:51:49.518Z,144736
2018-04-28T08:52:49.593Z,152544
2018-04-28T08:53:49.594Z,158464
2018-04-28T08:54:49.483Z,57664
2018-04-28T08:55:49.524Z,57600
2018-04-28T08:56:49.488Z,53152
2018-04-28T08:57:49.534Z,55552
2018-04-28T08:58:49.564Z,88032
2018-04-28T08:59:49.544Z,92448
2018-04-28T09:00:49.486Z,54720
2018-04-28T09:01:49.593Z,49376
2018-04-28T09:02:49.565Z,47488
2018-04-28T09:03:49.600Z,55744
2018-04-28T09:04:49.547Z,145312
2018-04-28T09:05:49.600Z,152736
2018-04-28T09:06:49.639Z,42752
2018-04-28T09:07:49.524Z,75392
2018-04-28T09:08:49.572Z,152544
2018-04-28T09:09:49.526Z,62784
2018-04-28T09:10:49.588Z,52800
2018-04-28T09:11:49.567Z,67680
2018-04-28T09:12:49.532Z,115424
2018-04-28T09:13:49.546Z,69088
2018-04-28T09:14:49.609Z,164352
2018-04-28T09:15:49.598Z,83136
2018-04-28T09:16:49.577Z,166752
2018-04-28T09:17:49.611Z,162304
2018-04-28T09:18:49.608Z,127648
2018-04-28T09:19:49.540Z,169504
2018-04-28T09:20:49.554Z,167488
2018-04-28T09:21:49.485Z,170656
2018-04-28T09:22:49.617Z,172512
2018-04-28T09:23:49.516Z,179520
2018-04-28T09:24:49.514Z,179712
2018-04-28T09:25:49.550Z,86240
2018-04-28T09:26:49.513Z,49152
2018-04-28T09:27:49.516Z,45920
2018-04-28T09:28:49.586Z,43168
2018-04-28T09:29:49.518Z,39456
2018-04-28T09:30:49.584Z,36736
2018-04-28T09:31:49.521Z,34816
2018-04-28T09:32:49.481Z,33696
2018-04-28T09:33:49.522Z,31968
2018-04-28T09:34:49.588Z,29984
2018-04-28T09:35:49.589Z,28544
2018-04-28T09:36:49.523Z,27168
2018-04-28T09:37:49.594Z,25856
2018-04-28T09:38:49.524Z,25408
2018-04-28T09:39:49.523Z,26048
2018-04-28T09:40:49.592Z,27232
2018-04-28T09:41:49.526Z,27936
2018-04-28T09:42:49.538Z,29184
2018-04-28T09:43:49.493Z,30688
2018-04-28T09:44:49.544Z,33056
2018-04-28T09:45:49.493Z,35776
2018-04-28T09:46:49.496Z,37760
2018-04-28T09:47:49.543Z,37728
2018-04-28T09:48:49.544Z,37152
2018-04-28T09:49:49.494Z,36704
2018-04-28T09:50:49.494Z,35872
2018-04-28T09:51:49.505Z,34720
2018-04-28T09:52:49.548Z,33728
2018-04-28T09:53:49.561Z,33472
2018-04-28T09:54:49.531Z,34688
2018-04-28T09:55:49.584Z,37376
2018-04-28T09:56:49.588Z,41152
2018-04-28T09:57:49.556Z,45536
2018-04-28T09:58:49.553Z,49536
2018-04-28T09:59:49.596Z,52928
2018-04-28T10:00:49.597Z,54720
2018-04-28T10:01:49.558Z,54912
2018-04-28T10:02:49.556Z,54688
2018-04-28T10:03:49.542Z,54624
2018-04-28T10:04:49.543Z,73536
2018-04-28T10:05:49.683Z,54912
2018-04-28T10:06:49.611Z,50368
2018-04-28T10:07:49.546Z,46112
2018-04-28T10:08:49.609Z,42304
2018-04-28T10:09:49.608Z,39904
2018-04-28T10:10:49.613Z,39232
2018-04-28T10:11:49.608Z,40192
2018-04-28T10:12:49.642Z,41504
2018-04-28T10:13:49.613Z,41824
2018-04-28T10:14:49.619Z,41696
2018-04-28T10:15:49.550Z,42080
2018-04-28T10:16:49.614Z,44128
2018-04-28T10:17:49.619Z,47648
2018-04-28T10:18:49.551Z,52448
2018-04-28T10:19:49.553Z,55968
2018-04-28T10:20:49.615Z,84000
2018-04-28T10:21:49.619Z,55904
2018-04-28T10:22:49.598Z,54656
2018-04-28T10:23:49.581Z,51840
2018-04-28T10:24:49.596Z,48256
2018-04-28T10:25:49.577Z,44800
2018-04-28T10:26:49.518Z,42464
2018-04-28T10:27:49.621Z,41152
2018-04-28T10:28:49.599Z,41024
2018-04-28T10:29:49.586Z,42432
2018-04-28T10:30:49.658Z,45920
2018-04-28T10:31:49.594Z,50848
2018-04-28T10:32:49.620Z,63072
2018-04-28T10:33:49.699Z,66080
2018-04-28T10:34:49.574Z,69824
2018-04-28T10:35:49.531Z,153632
2018-04-28T10:36:49.529Z,198816
2018-04-28T10:37:49.624Z,196480
2018-04-28T10:38:49.531Z,62528
2018-04-28T10:39:49.532Z,99648
2018-04-28T10:40:49.577Z,137664
2018-04-28T10:41:49.511Z,162880
2018-04-28T10:42:49.622Z,168160
2018-04-28T10:43:49.587Z,170624
2018-04-28T10:44:49.597Z,154528
2018-04-28T10:45:49.663Z,52960
2018-04-28T10:46:49.534Z,63840
2018-04-28T10:47:49.553Z,53312
2018-04-28T10:48:49.661Z,59264
2018-04-28T10:49:49.538Z,135424
2018-04-28T10:50:49.673Z,73824
2018-04-28T10:51:49.659Z,38144
2018-04-28T10:52:49.602Z,41600
2018-04-28T10:53:49.674Z,166592
2018-04-28T10:54:49.733Z,167104
2018-04-28T10:55:49.572Z,163360
2018-04-28T10:56:49.570Z,159008
2018-04-28T10:57:49.575Z,153664
2018-04-28T10:58:49.646Z,156256
2018-04-28T10:59:49.574Z,160064
2018-04-28T11:00:49.664Z,162976
2018-04-28T11:01:49.577Z,164096
2018-04-28T11:02:49.652Z,164544
2018-04-28T11:03:49.582Z,164576
2018-04-28T11:04:49.646Z,163968
2018-04-28T11:05:49.685Z,159776
2018-04-28T11:06:49.611Z,157760
2018-04-28T11:07:49.610Z,154304
2018-04-28T11:08:49.648Z,152576
2018-04-28T11:09:49.674Z,149888
2018-04-28T11:10:49.653Z,144800
2018-04-28T11:11:49.621Z,140288
2018-04-28T11:12:49.623Z,70144
2018-04-28T11:13:49.613Z,137056
2018-04-28T11:14:49.600Z,122816
2018-04-28T11:15:49.585Z,59936
2018-04-28T11:16:49.536Z,145184
2018-04-28T11:17:49.651Z,140512
2018-04-28T11:18:49.534Z,137312
2018-04-28T11:19:49.733Z,137536
2018-04-28T11:20:49.606Z,146912
2018-04-28T11:21:49.538Z,153152
2018-04-28T11:22:49.560Z,155904
2018-04-28T11:23:49.536Z,69696
2018-04-28T11:24:49.591Z,43296
2018-04-28T11:25:49.732Z,37728
2018-04-28T11:26:49.589Z,39520
2018-04-28T11:27:49.588Z,40224
2018-04-28T11:28:49.592Z,40192
2018-04-28T11:29:49.591Z,37760
2018-04-28T11:30:49.662Z,41952
2018-04-28T11:31:49.593Z,44672
2018-04-28T11:32:49.664Z,44544
2018-04-28T11:33:49.595Z,170016
2018-04-28T11:34:49.690Z,164160
2018-04-28T11:35:49.631Z,159328
2018-04-28T11:36:49.625Z,155104
2018-04-28T11:37:49.625Z,153504
2018-04-28T11:38:49.640Z,153344
2018-04-28T11:39:49.634Z,156288
2018-04-28T11:40:49.623Z,155808
2018-04-28T11:41:49.640Z,112704
2018-04-28T11:42:49.575Z,153184
2018-04-28T11:43:49.693Z,156192
2018-04-28T11:44:49.526Z,41216
2018-04-28T11:45:49.565Z,35808
2018-04-28T11:46:49.663Z,39264
2018-04-28T11:47:49.662Z,53312
2018-04-28T11:48:49.575Z,181408
2018-04-28T11:49:49.607Z,108800
2018-04-28T11:50:49.659Z,59072
2018-04-28T11:51:49.632Z,48320
2018-04-28T11:52:49.708Z,142272
2018-04-28T11:53:49.650Z,142432
2018-04-28T11:54:49.680Z,172000
2018-04-28T11:55:49.613Z,172448
2018-04-28T11:56:49.680Z,57632
2018-04-28T11:57:49.677Z,69536
2018-04-28T11:58:49.707Z,53888
2018-04-28T11:59:49.679Z,45504
2018-04-28T12:00:49.666Z,55296
2018-04-28T12:01:49.617Z,73600
2018-04-28T12:02:49.609Z,67136
2018-04-28T12:03:49.702Z,160352
2018-04-28T12:04:49.711Z,110112
2018-04-28T12:05:49.620Z,175168
2018-04-28T12:06:49.655Z,171872
2018-04-28T12:07:49.589Z,163264
2018-04-28T12:08:49.729Z,168288
2018-04-28T12:09:49.655Z,171008
2018-04-28T12:10:49.728Z,164192
2018-04-28T12:11:49.593Z,175072
2018-04-28T12:12:49.648Z,168736
2018-04-28T12:13:49.708Z,168064
2018-04-28T12:14:49.687Z,168672
2018-04-28T12:15:49.693Z,167872
2018-04-28T12:16:49.621Z,56192
2018-04-28T12:17:49.691Z,170976
2018-04-28T12:18:49.623Z,126688
2018-04-28T12:19:49.692Z,47520
2018-04-28T12:20:49.623Z,52768
2018-04-28T12:21:49.629Z,155616
2018-04-28T12:22:49.723Z,159776
2018-04-28T12:23:49.628Z,153024
2018-04-28T12:24:49.648Z,153632
2018-04-28T12:25:49.628Z,153376
2018-04-28T12:26:49.705Z,157600
2018-04-28T12:27:49.697Z,157024
2018-04-28T12:28:49.633Z,53824
2018-04-28T12:30:49.630Z,145824
2018-04-28T12:31:49.630Z,144384
2018-04-28T12:32:49.705Z,142720
2018-04-28T12:33:49.640Z,143264
2018-04-28T12:34:49.703Z,35200
2018-04-28T12:35:49.634Z,63520
2018-04-28T12:36:49.734Z,142880
2018-04-28T12:37:49.639Z,139680
2018-04-28T12:38:49.637Z,137760
2018-04-28T12:39:49.641Z,137216
2018-04-28T12:40:49.704Z,140640
2018-04-28T12:41:49.635Z,144192
2018-04-28T12:42:49.712Z,149120
2018-04-28T12:43:49.722Z,153056
2018-04-28T12:44:49.666Z,155456
2018-04-28T12:45:49.616Z,150944
2018-04-28T12:46:49.709Z,145728
2018-04-28T12:47:49.618Z,140288
2018-04-28T12:48:49.681Z,139584
2018-04-28T12:49:49.743Z,141312
2018-04-28T12:50:49.774Z,141600
2018-04-28T12:51:49.737Z,140448
2018-04-28T12:52:49.670Z,138848
2018-04-28T12:53:49.685Z,134944
2018-04-28T12:54:49.708Z,132800
2018-04-28T12:55:49.603Z,131648
2018-04-28T12:56:49.700Z,132256
2018-04-28T12:57:49.720Z,133824
2018-04-28T12:58:49.623Z,130688
2018-04-28T12:59:49.722Z,135072
2018-04-28T13:00:49.625Z,129344
2018-04-28T13:01:49.627Z,136160
2018-04-28T13:02:49.736Z,141216
2018-04-28T13:03:49.657Z,144288
2018-04-28T13:04:49.594Z,147360
2018-04-28T13:05:49.679Z,152832
2018-04-28T13:06:49.588Z,156128
2018-04-28T13:07:49.593Z,155232
2018-04-28T13:08:49.784Z,150656
2018-04-28T13:09:49.610Z,148352
2018-04-28T13:10:49.669Z,133984
2018-04-28T13:11:49.634Z,123040
2018-04-28T13:12:49.724Z,134176
2018-04-28T13:13:49.636Z,45792
2018-04-28T13:14:49.710Z,60896
2018-04-28T13:15:49.691Z,142912
2018-04-28T13:16:49.635Z,153568
2018-04-28T13:18:49.690Z,70816
2018-04-28T13:19:49.694Z,52704
2018-04-28T13:20:49.686Z,50784
2018-04-28T13:21:49.691Z,132064
2018-04-28T13:22:49.773Z,140512